createdAt,value
2018-05-02T07:29:26.448Z,16992
2018-05-02T07:30:28.299Z,16384
2018-05-02T07:31:30.872Z,15496
2018-05-02T07:32:32.893Z,15332
2018-05-02T07:33:34.573Z,14676
2018-05-02T07:34:36.409Z,14204
2018-05-02T07:35:38.305Z,13148
2018-05-02T07:36:40.225Z,12588
2018-05-02T07:37:42.246Z,12372
2018-05-02T07:40:01.954Z,11952
2018-05-02T07:41:04.142Z,12660
2018-05-02T07:42:06.476Z,13800
2018-05-02T07:43:08.981Z,14180
2018-05-02T07:44:11.898Z,12460
2018-05-02T07:45:14.049Z,11588
2018-05-02T07:46:16.219Z,12456
2018-05-02T07:47:18.461Z,13536
2018-05-02T07:48:21.061Z,15212
2018-05-02T07:49:35.744Z,14776
2018-05-02T07:50:37.937Z,13500
2018-05-02T07:51:40.122Z,12248
2018-05-02T07:52:42.317Z,11448
2018-05-02T07:53:44.793Z,10992
2018-05-02T07:54:47.171Z,12076
2018-05-02T07:55:49.394Z,13808
2018-05-02T07:56:51.594Z,15360
2018-05-02T07:57:54.012Z,15364
2018-05-02T08:00:13.426Z,12724
2018-05-02T08:01:15.275Z,12216
2018-05-02T08:02:17.149Z,11716
2018-05-02T08:03:19.048Z,11436
2018-05-02T08:04:20.886Z,10276
2018-05-02T08:05:22.708Z,9640
2018-05-02T08:06:24.596Z,9072
2018-05-02T08:07:26.537Z,8940
2018-05-02T08:08:28.365Z,9628
2018-05-02T08:09:42.520Z,10240
2018-05-02T08:10:44.390Z,10464
2018-05-02T08:11:46.263Z,10180
2018-05-02T08:12:48.159Z,9396
2018-05-02T08:13:49.997Z,8656
2018-05-02T08:14:51.811Z,8316
2018-05-02T08:15:53.707Z,8100
2018-05-02T08:16:55.581Z,8248
2018-05-02T08:17:57.455Z,8860
2018-05-02T08:19:11.628Z,9776
2018-05-02T08:20:13.525Z,10328
2018-05-02T08:21:15.423Z,10624
2018-05-02T08:22:17.320Z,10520
2018-05-02T08:23:19.132Z,10320
2018-05-02T08:24:20.948Z,10324
2018-05-02T08:25:22.842Z,10364
2018-05-02T08:26:24.724Z,10648
2018-05-02T08:27:26.616Z,11288
2018-05-02T08:28:40.769Z,12216
2018-05-02T08:29:42.648Z,12756
2018-05-02T08:30:44.540Z,13368
2018-05-02T08:31:46.418Z,14116
2018-05-02T08:32:48.285Z,14972
2018-05-02T08:33:50.073Z,15800
2018-05-02T08:34:51.974Z,16576
2018-05-02T08:35:53.847Z,17312
2018-05-02T08:36:55.745Z,17792
2018-05-02T08:38:09.892Z,17920
2018-05-02T08:39:11.766Z,17728
2018-05-02T08:40:13.639Z,17888
2018-05-02T08:41:15.521Z,18144
2018-05-02T08:42:17.357Z,18368
2018-05-02T08:43:19.196Z,18272
2018-05-02T08:44:21.096Z,18528
2018-05-02T08:45:22.968Z,18336
2018-05-02T08:46:24.867Z,17600
2018-05-02T08:47:39.022Z,16800
2018-05-02T08:48:40.920Z,16576
2018-05-02T08:49:42.797Z,16512
2018-05-02T08:50:44.749Z,16544
2018-05-02T08:51:46.552Z,16352
2018-05-02T08:52:48.493Z,15564
2018-05-02T08:53:50.563Z,14920
2018-05-02T08:54:52.440Z,13748
2018-05-02T08:55:54.360Z,13072
2018-05-02T08:57:08.542Z,12216
2018-05-02T08:58:10.441Z,12028
2018-05-02T08:59:12.340Z,12184
2018-05-02T09:00:14.223Z,12988
2018-05-02T09:01:16.060Z,13540
2018-05-02T09:02:17.903Z,14236
2018-05-02T09:03:19.795Z,15092
2018-05-02T09:04:21.770Z,16004
2018-05-02T09:05:23.680Z,16608
2018-05-02T09:06:37.860Z,16608
2018-05-02T09:07:39.773Z,16320
2018-05-02T09:08:41.733Z,15552
2018-05-02T09:09:43.627Z,14972
2018-05-02T09:10:45.501Z,14572
2018-05-02T09:11:47.365Z,14664
2018-05-02T09:12:49.265Z,14972
2018-05-02T09:13:51.164Z,15124
2018-05-02T09:14:53.061Z,14596
2018-05-02T09:16:07.279Z,13588
2018-05-02T09:17:09.184Z,13108
2018-05-02T09:18:11.109Z,13236
2018-05-02T09:19:12.995Z,13760
2018-05-02T09:20:14.818Z,14100
2018-05-02T09:21:16.655Z,14448
2018-05-02T09:22:18.530Z,14660
2018-05-02T09:23:20.412Z,14060
2018-05-02T09:24:22.302Z,13544
2018-05-02T09:25:36.516Z,13924
2018-05-02T09:26:38.392Z,14228
2018-05-02T09:27:40.290Z,14568
2018-05-02T09:28:42.168Z,15080
2018-05-02T09:29:43.986Z,15628
2018-05-02T09:30:45.797Z,15620
2018-05-02T09:31:47.678Z,15936
2018-05-02T09:32:49.576Z,16000
2018-05-02T09:33:51.449Z,16352
2018-05-02T09:35:05.606Z,17184
2018-05-02T09:36:07.484Z,17536
2018-05-02T09:37:09.383Z,17376
2018-05-02T09:38:11.268Z,17152
2018-05-02T09:39:13.107Z,16928
2018-05-02T09:40:14.919Z,16960
2018-05-02T09:41:16.801Z,16864
2018-05-02T09:42:18.703Z,16928
2018-05-02T09:43:20.601Z,17472
2018-05-02T09:44:34.755Z,18176
2018-05-02T09:45:36.634Z,18784
2018-05-02T09:46:39.193Z,18848
2018-05-02T09:47:41.160Z,17984
2018-05-02T09:48:43.074Z,16960
2018-05-02T09:49:44.921Z,15792
2018-05-02T09:50:46.829Z,15268
2018-05-02T09:51:48.702Z,15324
2018-05-02T09:52:50.583Z,15908
2018-05-02T09:54:04.740Z,15376
2018-05-02T09:55:06.609Z,14900
2018-05-02T09:56:08.487Z,14464
2018-05-02T09:57:10.387Z,14560
2018-05-02T09:58:12.316Z,14976
2018-05-02T09:59:14.131Z,14924
2018-05-02T10:00:16.057Z,14844
2018-05-02T10:01:17.930Z,15048
2018-05-02T10:02:19.845Z,15736
2018-05-02T10:03:34.052Z,17472
2018-05-02T10:04:35.973Z,18400
2018-05-02T10:05:37.822Z,18496
2018-05-02T10:06:39.706Z,17952
2018-05-02T10:07:41.612Z,16960
2018-05-02T10:08:43.475Z,16704
2018-05-02T10:09:45.370Z,16896
2018-05-02T10:10:47.285Z,17376
2018-05-02T10:11:49.163Z,17504
2018-05-02T10:13:03.318Z,16928
2018-05-02T10:14:05.241Z,16384
2018-05-02T10:15:07.114Z,15452
2018-05-02T10:16:09.052Z,14872
2018-05-02T10:17:10.854Z,14520
2018-05-02T10:18:12.676Z,15284
2018-05-02T10:19:14.585Z,16640
2018-05-02T10:20:16.544Z,17792
2018-05-02T10:21:18.475Z,18976
2018-05-02T10:22:32.626Z,19392
2018-05-02T10:23:34.530Z,19360
2018-05-02T10:24:36.425Z,19520
2018-05-02T10:25:38.309Z,19936
2018-05-02T10:26:40.128Z,19808
2018-05-02T10:27:41.943Z,18880
2018-05-02T10:28:43.842Z,17152
2018-05-02T10:29:45.737Z,15764
2018-05-02T10:30:47.618Z,14556
2018-05-02T10:32:01.773Z,13952
2018-05-02T10:33:03.648Z,14004
2018-05-02T10:34:05.548Z,14088
2018-05-02T10:35:07.477Z,14336
2018-05-02T10:36:09.284Z,14828
2018-05-02T10:37:11.121Z,15652
2018-05-02T10:38:12.994Z,16512
2018-05-02T10:39:14.880Z,17120
2018-05-02T10:40:16.776Z,17472
2018-05-02T10:41:30.929Z,17056
2018-05-02T10:42:32.827Z,17344
2018-05-02T10:43:34.722Z,17792
2018-05-02T10:44:36.605Z,17888
2018-05-02T10:45:38.420Z,17888
2018-05-02T10:46:40.258Z,17568
2018-05-02T10:47:42.135Z,16672
2018-05-02T10:48:44.015Z,15904
2018-05-02T10:49:45.914Z,15456
2018-05-02T10:51:00.080Z,14780
2018-05-02T10:52:01.980Z,14524
2018-05-02T10:53:03.855Z,14296
2018-05-02T10:54:05.733Z,13692
2018-05-02T10:55:07.575Z,12936
2018-05-02T10:56:09.394Z,12068
2018-05-02T10:57:11.254Z,11376
2018-05-02T10:58:13.075Z,10692
2018-05-02T10:59:14.944Z,9828
2018-05-02T11:00:29.171Z,8780
2018-05-02T11:01:31.024Z,7820
2018-05-02T11:02:32.904Z,7024
2018-05-02T11:03:34.804Z,6652
2018-05-02T11:04:36.622Z,6432
2018-05-02T11:05:38.438Z,6172
2018-05-02T11:06:40.334Z,5816
2018-05-02T11:07:42.211Z,5496
2018-05-02T11:08:44.098Z,5396
2018-05-02T11:09:58.267Z,5664
2018-05-02T11:11:00.161Z,6048
2018-05-02T11:12:02.046Z,5748
2018-05-02T11:13:03.950Z,5456
2018-05-02T11:14:05.786Z,5240
2018-05-02T11:15:07.620Z,5208
2018-05-02T11:16:09.501Z,5152
2018-05-02T11:17:11.404Z,5072
2018-05-02T11:18:13.292Z,5252
2018-05-02T11:19:27.444Z,5356
2018-05-02T11:20:29.319Z,5264
2018-05-02T11:21:31.220Z,5100
2018-05-02T11:22:33.095Z,4964
2018-05-02T11:23:34.981Z,4924
2018-05-02T11:24:36.783Z,4928
2018-05-02T11:25:38.662Z,4892
2018-05-02T11:26:40.533Z,4884
2018-05-02T11:27:42.430Z,4868
2018-05-02T11:28:56.589Z,4868
2018-05-02T11:29:58.504Z,4852
2018-05-02T11:31:00.377Z,4860
2018-05-02T11:32:02.286Z,4856
2018-05-02T11:33:04.092Z,4864
2018-05-02T11:34:05.931Z,4884
2018-05-02T11:35:07.828Z,4888
2018-05-02T11:36:09.703Z,4880
2018-05-02T11:37:11.603Z,4872
2018-05-02T11:38:25.751Z,4864
2018-05-02T11:39:27.630Z,4876
2018-05-02T11:40:29.505Z,4876
2018-05-02T11:41:31.380Z,4888
2018-05-02T11:42:33.212Z,4900
2018-05-02T11:43:35.028Z,4928
2018-05-02T11:44:36.905Z,4984
2018-05-02T11:45:38.816Z,5072
2018-05-02T11:46:40.731Z,5132
2018-05-02T11:47:54.867Z,5172
2018-05-02T11:48:56.758Z,5148
2018-05-02T11:49:58.631Z,5180
2018-05-02T11:51:00.506Z,5244
2018-05-02T11:52:02.345Z,5328
2018-05-02T11:53:04.183Z,5368
2018-05-02T11:54:06.094Z,5452
2018-05-02T11:55:07.987Z,5560
2018-05-02T11:56:09.865Z,5700
2018-05-02T11:57:24.038Z,5852
2018-05-02T11:58:25.910Z,6028
2018-05-02T11:59:27.786Z,6052
2018-05-02T12:00:29.662Z,6092
2018-05-02T12:01:31.485Z,6316
2018-05-02T12:02:33.329Z,6304
2018-05-02T12:03:35.230Z,6316
2018-05-02T12:04:37.065Z,6560
2018-05-02T12:05:38.933Z,6828
2018-05-02T12:06:53.088Z,7060
2018-05-02T12:07:54.965Z,7260
2018-05-02T12:08:56.860Z,7412
2018-05-02T12:09:58.735Z,7480
2018-05-02T12:11:00.554Z,7296
2018-05-02T12:12:02.360Z,6920
2018-05-02T12:13:04.243Z,6644
2018-05-02T12:14:06.135Z,6352
2018-05-02T12:15:08.009Z,5976
2018-05-02T12:16:22.211Z,5900
2018-05-02T12:17:24.089Z,5816
2018-05-02T12:18:25.984Z,5724
2018-05-02T12:19:27.859Z,5920
2018-05-02T12:20:29.671Z,6240
2018-05-02T12:21:31.504Z,6848
2018-05-02T12:22:33.380Z,7420
2018-05-02T12:23:35.277Z,7952
2018-05-02T12:24:37.152Z,8588
2018-05-02T12:25:51.330Z,9544
2018-05-02T12:26:53.229Z,10568
2018-05-02T12:27:55.127Z,11428
2018-05-02T12:28:56.995Z,12252
2018-05-02T12:29:58.832Z,13076
2018-05-02T12:31:00.648Z,13056
2018-05-02T12:32:02.549Z,12460
2018-05-02T12:33:04.455Z,12300
2018-05-02T12:34:06.346Z,12004
2018-05-02T12:35:20.685Z,11384
2018-05-02T12:36:22.470Z,11116
2018-05-02T12:37:24.387Z,11172
2018-05-02T12:38:26.272Z,11272
2018-05-02T12:39:28.083Z,11692
2018-05-02T12:40:29.901Z,11788
2018-05-02T12:41:31.801Z,12700
2018-05-02T12:42:33.697Z,13908
2018-05-02T12:43:35.577Z,15868
2018-05-02T12:44:49.732Z,15500
2018-05-02T12:45:51.603Z,15424
2018-05-02T12:46:53.483Z,16672
2018-05-02T12:47:55.385Z,15796
2018-05-02T12:48:57.226Z,15212
2018-05-02T12:49:59.061Z,12308
2018-05-02T12:51:00.964Z,10492
2018-05-02T12:52:02.866Z,11624
2018-05-02T12:53:04.761Z,12632
2018-05-02T12:54:18.916Z,10344
2018-05-02T12:55:20.791Z,9268
2018-05-02T12:56:22.687Z,8628
2018-05-02T12:57:24.540Z,8420
2018-05-02T12:58:26.383Z,7968
2018-05-02T12:59:28.220Z,7756
2018-05-02T13:00:30.094Z,7640
2018-05-02T13:01:31.970Z,8008
2018-05-02T13:02:33.882Z,8460
2018-05-02T13:03:48.035Z,8428
2018-05-02T13:04:49.910Z,8000
2018-05-02T13:05:51.787Z,7748
2018-05-02T13:06:53.723Z,7816
2018-05-02T13:07:55.550Z,8028
2018-05-02T13:08:57.436Z,7736
2018-05-02T13:09:59.308Z,7908
2018-05-02T13:11:01.267Z,7928
2018-05-02T13:12:03.166Z,7984
2018-05-02T13:13:17.325Z,7888
2018-05-02T13:14:19.222Z,8136
2018-05-02T13:15:21.093Z,8388
2018-05-02T13:16:22.969Z,9156
2018-05-02T13:17:24.783Z,9832
2018-05-02T13:18:26.601Z,12100
2018-05-02T13:19:28.483Z,13428
2018-05-02T13:20:30.379Z,13288
2018-05-02T13:21:32.304Z,13560
2018-05-02T13:22:46.415Z,13164
2018-05-02T13:23:48.316Z,13412
2018-05-02T13:24:50.217Z,14408
2018-05-02T13:25:52.134Z,14820
2018-05-02T13:26:54.032Z,14984
2018-05-02T13:27:55.881Z,13980
2018-05-02T13:28:57.767Z,14284
2018-05-02T13:29:59.636Z,13664
2018-05-02T13:31:01.515Z,12628
2018-05-02T13:32:15.672Z,11252
2018-05-02T13:33:17.643Z,8840
2018-05-02T13:34:19.425Z,7196
2018-05-02T13:35:21.292Z,6744
2018-05-02T13:36:23.111Z,7060
2018-05-02T13:37:24.928Z,8068
2018-05-02T13:38:26.831Z,9360
2018-05-02T13:39:28.724Z,9856
2018-05-02T13:40:30.587Z,10244
2018-05-02T13:41:44.762Z,11100
2018-05-02T13:42:46.642Z,11816
2018-05-02T13:43:48.648Z,12284
2018-05-02T13:44:50.452Z,12148
2018-05-02T13:45:52.291Z,11756
2018-05-02T13:46:54.112Z,11588
2018-05-02T13:47:55.976Z,11376
2018-05-02T13:48:57.808Z,11084
2018-05-02T13:49:59.641Z,10996
2018-05-02T13:51:13.859Z,11292
2018-05-02T13:52:15.696Z,11496
2018-05-02T13:53:17.583Z,11468
2018-05-02T13:54:19.487Z,11884
2018-05-02T13:55:21.326Z,12052
2018-05-02T13:56:23.184Z,11888
2018-05-02T13:57:25.499Z,11868
2018-05-02T13:58:27.333Z,12160
2018-05-02T13:59:29.233Z,12516
2018-05-02T14:00:43.387Z,12732
2018-05-02T14:01:45.263Z,12748
2018-05-02T14:02:47.144Z,12828
2018-05-02T14:03:49.043Z,12860
2018-05-02T14:04:50.865Z,12632
2018-05-02T14:05:52.680Z,12392
2018-05-02T14:06:54.576Z,12080
2018-05-02T14:07:56.460Z,11380
2018-05-02T14:08:58.340Z,11452
2018-05-02T14:10:12.523Z,11372
2018-05-02T14:11:14.425Z,10896
2018-05-02T14:12:16.323Z,10424
2018-05-02T14:13:18.238Z,10164
2018-05-02T14:14:20.080Z,9916
2018-05-02T14:15:21.909Z,9876
2018-05-02T14:16:23.785Z,9952
2018-05-02T14:17:25.717Z,10220
2018-05-02T14:18:27.610Z,10860
2018-05-02T14:19:41.773Z,11372
2018-05-02T14:20:43.676Z,11144
2018-05-02T14:21:45.574Z,10348
2018-05-02T14:22:47.453Z,10128
2018-05-02T14:23:49.273Z,9888
2018-05-02T14:24:51.200Z,10136
2018-05-02T14:25:52.989Z,10100
2018-05-02T14:26:54.868Z,9484
2018-05-02T14:27:56.766Z,9720
2018-05-02T14:29:10.921Z,9828
2018-05-02T14:30:12.815Z,9540
2018-05-02T14:31:14.697Z,9636
2018-05-02T14:32:16.577Z,9444
2018-05-02T14:33:18.410Z,10296
2018-05-02T14:34:20.229Z,10560
2018-05-02T14:35:22.136Z,11268
2018-05-02T14:36:24.009Z,11576
2018-05-02T14:37:25.896Z,10312
2018-05-02T14:38:40.053Z,9100
2018-05-02T14:39:41.912Z,8564
2018-05-02T14:40:43.788Z,7640
2018-05-02T14:41:45.672Z,7220
2018-05-02T14:42:47.484Z,7000
2018-05-02T14:43:49.398Z,6836
2018-05-02T14:44:51.277Z,6872
2018-05-02T14:45:53.153Z,7336
2018-05-02T14:46:55.068Z,8204
2018-05-02T14:48:09.229Z,9444
2018-05-02T14:49:11.228Z,10084
2018-05-02T14:50:13.168Z,10448
2018-05-02T14:51:15.153Z,10764
2018-05-02T14:52:17.074Z,11136
2018-05-02T14:53:18.940Z,11484
2018-05-02T14:54:20.827Z,11508
2018-05-02T14:55:22.720Z,11540
2018-05-02T14:56:24.601Z,11788
2018-05-02T14:57:38.757Z,11872
2018-05-02T14:58:40.642Z,11852
2018-05-02T14:59:42.528Z,12496
2018-05-02T15:00:44.420Z,12860
2018-05-02T15:01:46.244Z,13060
2018-05-02T15:02:48.089Z,13404
2018-05-02T15:03:49.993Z,13448
2018-05-02T15:04:51.891Z,13484
2018-05-02T15:05:53.764Z,13488
2018-05-02T15:07:07.939Z,13480
